Time;durP1;ratioP1;P1;durP2;ratioP2;P2;SDS_P1;SDS_P2;PMS_P1;PMS_P2;Temp;Humidity;BMP_temperature;BMP_pressure;BME280_temperature;BME280_humidity;BME280_pressure;Samples;Min_cycle;Max_cycle;Signal;HPM_P1;HPM_P2
2021/12/10 00:00:28;;;;;;;0.30;0.30;;;;;;;;;;1876205;75;26330;-34
2021/12/10 00:02:55;;;;;;;0.80;0.50;;;;;;;;;;1895601;75;26268;-32
2021/12/10 00:05:33;;;;;;;0.50;0.45;;;;;;;;;;1894561;75;26583;-33
2021/12/10 00:08:01;;;;;;;0.20;0.20;;;;;;;;;;1879215;74;26351;-32
2021/12/10 00:10:30;;;;;;;0.55;0.55;;;;;;;;;;1882763;74;26775;-33
2021/12/10 00:12:58;;;;;;;0.40;0.40;;;;;;;;;;1876943;75;26269;-32
2021/12/10 00:15:27;;;;;;;1.30;0.35;;;;;;;;;;1893749;75;26978;-31
2021/12/10 00:17:56;;;;;;;0.70;0.40;;;;;;;;;;1891400;74;26265;-32
2021/12/10 00:20:25;;;;;;;0.30;0.30;;;;;;;;;;1885853;75;26323;-31
2021/12/10 00:22:56;;;;;;;0.30;0.30;;;;;;;;;;1892426;75;26736;-31
2021/12/10 00:25:24;;;;;;;0.42;0.42;;;;;;;;;;1885679;75;26345;-34
2021/12/10 00:27:53;;;;;;;0.30;0.30;;;;;;;;;;1885127;76;26266;-32
2021/12/10 00:30:24;;;;;;;0.30;0.30;;;;;;;;;;1884433;76;26823;-35
2021/12/10 00:33:00;;;;;;;0.40;0.40;;;;;;;;;;1886327;76;26352;-31
2021/12/10 00:35:26;;;;;;;0.47;0.42;;;;;;;;;;1885151;76;26270;-34
2021/12/10 00:37:53;;;;;;;0.95;0.40;;;;;;;;;;1885590;76;27319;-31
2021/12/10 00:40:22;;;;;;;1.85;0.40;;;;;;;;;;1880199;76;26249;-34
2021/12/10 00:42:50;;;;;;;0.35;0.30;;;;;;;;;;1853399;77;26802;-32
2021/12/10 00:45:18;;;;;;;0.47;0.47;;;;;;;;;;1848828;77;26319;-31
2021/12/10 00:47:46;;;;;;;0.35;0.35;;;;;;;;;;1852751;77;26260;-32
2021/12/10 00:50:15;;;;;;;0.40;0.40;;;;;;;;;;1851737;77;26796;-35
2021/12/10 00:52:43;;;;;;;0.40;0.40;;;;;;;;;;1819552;78;26279;-31
2021/12/10 00:55:11;;;;;;;0.72;0.72;;;;;;;;;;1817383;78;26311;-36
2021/12/10 00:57:39;;;;;;;1.07;0.60;;;;;;;;;;1819473;77;26280;-34
2021/12/10 01:00:08;;;;;;;0.50;0.50;;;;;;;;;;1813572;78;26329;-31
2021/12/10 01:02:35;;;;;;;0.90;0.62;;;;;;;;;;1816465;78;26285;-36
2021/12/10 01:05:03;;;;;;;0.50;0.50;;;;;;;;;;1817083;78;26391;-31
2021/12/10 01:07:32;;;;;;;0.50;0.50;;;;;;;;;;1822177;78;26711;-32
2021/12/10 01:10:01;;;;;;;0.40;0.40;;;;;;;;;;1818508;77;26329;-31
2021/12/10 01:12:30;;;;;;;0.30;0.30;;;;;;;;;;1811419;79;26699;-34
2021/12/10 01:26:10;;;;;;;0.42;0.42;;;;;;;;;;1804575;78;26328;-32
2021/12/10 01:28:25;;;;;;;0.40;0.40;;;;;;;;;;1856710;76;26301;-32
2021/12/10 01:30:53;;;;;;;0.40;0.40;;;;;;;;;;1864507;77;26278;-35
2021/12/10 01:33:20;;;;;;;0.40;0.40;;;;;;;;;;1860977;76;26273;-36
2021/12/10 01:35:53;;;;;;;0.50;0.50;;;;;;;;;;1864983;77;26540;-45
2021/12/10 01:38:18;;;;;;;0.50;0.50;;;;;;;;;;1862032;76;26710;-33
2021/12/10 01:40:48;;;;;;;1.25;0.40;;;;;;;;;;1864239;77;26340;-30
2021/12/10 01:43:23;;;;;;;0.50;0.50;;;;;;;;;;1860828;76;26655;-33
2021/12/10 01:45:55;;;;;;;0.50;0.50;;;;;;;;;;1866656;77;26266;-32
2021/12/10 01:48:23;;;;;;;0.40;0.40;;;;;;;;;;1857839;76;26253;-33
2021/12/10 01:50:51;;;;;;;0.40;0.40;;;;;;;;;;1866012;77;26211;-35
2021/12/10 01:53:20;;;;;;;0.50;0.50;;;;;;;;;;1865674;76;26791;-35
2021/12/10 01:55:49;;;;;;;0.70;0.55;;;;;;;;;;1865389;77;26344;-32
2021/12/10 01:58:18;;;;;;;1.37;0.40;;;;;;;;;;1859484;76;26440;-33
2021/12/10 02:00:46;;;;;;;1.07;0.40;;;;;;;;;;1860420;75;26257;-31
2021/12/10 02:03:14;;;;;;;1.85;0.60;;;;;;;;;;1862217;77;26254;-34
2021/12/10 02:05:41;;;;;;;0.35;0.35;;;;;;;;;;1861477;75;26261;-33
2021/12/10 02:08:09;;;;;;;0.45;0.45;;;;;;;;;;1863222;77;26328;-32
2021/12/10 02:10:36;;;;;;;0.40;0.40;;;;;;;;;;1860573;76;26280;-32
2021/12/10 02:13:04;;;;;;;0.40;0.40;;;;;;;;;;1862998;77;26313;-35
2021/12/10 02:15:31;;;;;;;0.40;0.40;;;;;;;;;;1865670;77;26274;-35
2021/12/10 02:18:00;;;;;;;0.55;0.55;;;;;;;;;;1867329;76;26516;-33
2021/12/10 02:20:32;;;;;;;0.30;0.30;;;;;;;;;;1861242;77;26335;-32
2021/12/10 02:23:01;;;;;;;0.50;0.50;;;;;;;;;;1863472;77;26227;-31
2021/12/10 02:25:30;;;;;;;0.68;0.47;;;;;;;;;;1860515;76;26276;-30
2021/12/10 02:27:58;;;;;;;0.40;0.40;;;;;;;;;;1886150;76;26256;-33
2021/12/10 02:30:27;;;;;;;0.40;0.40;;;;;;;;;;1887721;76;26201;-32
2021/12/10 02:32:54;;;;;;;0.40;0.40;;;;;;;;;;1887340;76;26202;-32
2021/12/10 02:35:22;;;;;;;0.75;0.50;;;;;;;;;;1887307;76;26683;-32
2021/12/10 02:37:50;;;;;;;0.40;0.40;;;;;;;;;;1886422;76;26265;-30
2021/12/10 02:40:19;;;;;;;0.30;0.30;;;;;;;;;;1885332;76;26229;-32
2021/12/10 02:42:48;;;;;;;0.30;0.30;;;;;;;;;;1890389;74;26253;-31
2021/12/10 02:45:17;;;;;;;0.50;0.50;;;;;;;;;;1890344;76;26246;-35
2021/12/10 02:47:45;;;;;;;0.30;0.30;;;;;;;;;;1886500;76;26285;-35
2021/12/10 02:50:13;;;;;;;1.35;0.40;;;;;;;;;;1886904;76;26296;-33
2021/12/10 02:52:41;;;;;;;0.30;0.30;;;;;;;;;;1889377;76;26766;-32
2021/12/10 02:55:15;;;;;;;0.50;0.50;;;;;;;;;;1889563;76;26210;-32
2021/12/10 02:57:40;;;;;;;0.30;0.30;;;;;;;;;;1888218;76;26304;-31
2021/12/10 03:00:09;;;;;;;0.40;0.40;;;;;;;;;;1876567;76;26338;-32
2021/12/10 03:02:36;;;;;;;0.42;0.42;;;;;;;;;;1887299;76;26314;-33
2021/12/10 03:05:05;;;;;;;0.30;0.30;;;;;;;;;;1890641;76;26735;-36
2021/12/10 03:07:33;;;;;;;0.40;0.40;;;;;;;;;;1869377;76;26212;-32
2021/12/10 03:10:01;;;;;;;0.50;0.50;;;;;;;;;;1876039;76;26228;-32
2021/12/10 03:12:30;;;;;;;0.37;0.37;;;;;;;;;;1879287;76;26769;-32
2021/12/10 03:14:58;;;;;;;1.17;0.42;;;;;;;;;;1858709;76;26764;-31
2021/12/10 03:17:26;;;;;;;0.50;0.50;;;;;;;;;;1867717;76;26265;-32
2021/12/10 03:19:54;;;;;;;0.33;0.33;;;;;;;;;;1879540;76;26487;-32
2021/12/10 03:22:22;;;;;;;0.30;0.30;;;;;;;;;;1880588;76;26653;-31
2021/12/10 03:24:52;;;;;;;0.30;0.30;;;;;;;;;;1889307;74;26260;-31
2021/12/10 03:27:19;;;;;;;0.30;0.30;;;;;;;;;;1862802;76;26361;-32
2021/12/10 03:29:47;;;;;;;0.30;0.30;;;;;;;;;;1859346;76;26694;-32
2021/12/10 03:32:15;;;;;;;0.40;0.40;;;;;;;;;;1865713;77;26757;-34
2021/12/10 03:34:43;;;;;;;0.35;0.35;;;;;;;;;;1858552;77;26970;-32
2021/12/10 03:37:11;;;;;;;1.47;0.40;;;;;;;;;;1861061;76;26206;-32
2021/12/10 03:39:39;;;;;;;0.50;0.50;;;;;;;;;;1861271;77;26282;-30
2021/12/10 03:42:07;;;;;;;0.30;0.30;;;;;;;;;;1858747;77;26595;-32
2021/12/10 03:44:35;;;;;;;0.50;0.50;;;;;;;;;;1863011;76;26753;-32
2021/12/10 03:47:03;;;;;;;0.37;0.37;;;;;;;;;;1859385;76;26277;-36
2021/12/10 03:49:31;;;;;;;0.60;0.40;;;;;;;;;;1858265;76;26257;-36
2021/12/10 03:51:58;;;;;;;0.57;0.57;;;;;;;;;;1848935;76;26253;-35
2021/12/10 03:54:26;;;;;;;0.47;0.47;;;;;;;;;;1862846;75;26293;-35
2021/12/10 03:56:54;;;;;;;0.37;0.37;;;;;;;;;;1856328;76;26213;-31
2021/12/10 03:59:23;;;;;;;0.40;0.40;;;;;;;;;;1861954;76;26382;-35
2021/12/10 04:01:52;;;;;;;0.30;0.30;;;;;;;;;;1862619;76;26307;-35
2021/12/10 04:04:21;;;;;;;0.40;0.40;;;;;;;;;;1854976;77;26313;-33
2021/12/10 04:06:48;;;;;;;0.30;0.30;;;;;;;;;;1853406;75;26778;-31
2021/12/10 04:09:16;;;;;;;0.40;0.40;;;;;;;;;;1863277;75;26276;-33
2021/12/10 04:11:44;;;;;;;0.47;0.40;;;;;;;;;;1844946;77;26264;-31
2021/12/10 04:14:11;;;;;;;0.50;0.50;;;;;;;;;;1841741;77;26263;-27
2021/12/10 04:16:39;;;;;;;0.35;0.30;;;;;;;;;;1853404;77;25948;-29
2021/12/10 04:19:07;;;;;;;0.40;0.40;;;;;;;;;;1844755;76;26366;-39
2021/12/10 04:21:40;;;;;;;0.40;0.40;;;;;;;;;;1849728;75;26270;-31
2021/12/10 04:24:05;;;;;;;0.33;0.33;;;;;;;;;;1843328;77;26306;-32
2021/12/10 04:26:32;;;;;;;0.40;0.40;;;;;;;;;;1866522;75;26202;-33
2021/12/10 04:28:59;;;;;;;5.87;0.40;;;;;;;;;;1879215;75;26266;-33
2021/12/10 04:31:26;;;;;;;0.40;0.40;;;;;;;;;;1833101;77;38944;-33
2021/12/10 04:33:54;;;;;;;0.42;0.42;;;;;;;;;;1858112;77;26260;-32
2021/12/10 04:36:21;;;;;;;0.85;0.47;;;;;;;;;;1859445;77;26318;-31
2021/12/10 04:38:48;;;;;;;0.40;0.40;;;;;;;;;;1852828;77;26253;-32
2021/12/10 04:41:16;;;;;;;1.65;0.57;;;;;;;;;;1850666;77;26264;-34
2021/12/10 04:43:45;;;;;;;0.42;0.40;;;;;;;;;;1815548;77;26774;-32
2021/12/10 04:46:12;;;;;;;0.50;0.50;;;;;;;;;;1826182;77;26338;-35
2021/12/10 04:48:47;;;;;;;1.20;0.60;;;;;;;;;;1828962;77;28293;-34
2021/12/10 04:51:14;;;;;;;0.50;0.50;;;;;;;;;;1844447;77;26362;-36
2021/12/10 04:53:42;;;;;;;1.27;0.50;;;;;;;;;;1822932;78;26271;-34
2021/12/10 04:56:09;;;;;;;0.50;0.50;;;;;;;;;;1837691;77;26249;-31
2021/12/10 04:58:36;;;;;;;0.50;0.50;;;;;;;;;;1820949;77;27444;-28
2021/12/10 05:01:04;;;;;;;0.57;0.57;;;;;;;;;;1828770;77;26329;-32
2021/12/10 05:03:33;;;;;;;1.27;0.60;;;;;;;;;;1827843;77;26280;-31
2021/12/10 05:06:03;;;;;;;0.65;0.65;;;;;;;;;;1827155;77;26279;-34
2021/12/10 05:08:31;;;;;;;0.60;0.60;;;;;;;;;;1824540;77;26916;-36
2021/12/10 05:10:59;;;;;;;0.60;0.60;;;;;;;;;;1825671;77;26810;-32
2021/12/10 05:13:27;;;;;;;0.90;0.50;;;;;;;;;;1812890;78;26258;-33
2021/12/10 05:15:58;;;;;;;1.75;0.60;;;;;;;;;;1840292;77;26648;-33
2021/12/10 05:18:24;;;;;;;0.68;0.62;;;;;;;;;;1817819;77;26417;-32
2021/12/10 05:20:51;;;;;;;1.60;0.70;;;;;;;;;;1823744;78;28752;-31
2021/12/10 05:23:19;;;;;;;0.50;0.50;;;;;;;;;;1816144;77;26326;-31
2021/12/10 05:25:47;;;;;;;0.65;0.47;;;;;;;;;;1837216;77;27234;-30
2021/12/10 05:28:14;;;;;;;0.50;0.50;;;;;;;;;;1831740;76;26307;-33
2021/12/10 05:30:42;;;;;;;1.57;0.70;;;;;;;;;;1817782;76;26846;-36
2021/12/10 05:33:15;;;;;;;2.98;0.70;;;;;;;;;;1862618;76;26265;-34
2021/12/10 05:35:38;;;;;;;0.68;0.50;;;;;;;;;;1861478;77;26346;-31
2021/12/10 05:38:05;;;;;;;1.45;0.78;;;;;;;;;;1840990;77;26312;-32
2021/12/10 05:40:33;;;;;;;1.62;0.70;;;;;;;;;;1842689;76;26378;-30
2021/12/10 05:43:01;;;;;;;0.70;0.70;;;;;;;;;;1864341;77;26202;-31
2021/12/10 05:45:28;;;;;;;0.50;0.50;;;;;;;;;;1860304;77;26338;-31
2021/12/10 05:47:55;;;;;;;0.72;0.50;;;;;;;;;;1846336;77;26261;-33
2021/12/10 05:50:24;;;;;;;0.60;0.60;;;;;;;;;;1843991;77;26358;-31
2021/12/10 05:52:51;;;;;;;2.65;0.80;;;;;;;;;;1848989;77;26653;-30
2021/12/10 05:55:19;;;;;;;0.65;0.60;;;;;;;;;;1846933;77;26250;-31
2021/12/10 05:57:47;;;;;;;2.65;0.60;;;;;;;;;;1864762;76;26707;-30
2021/12/10 06:00:16;;;;;;;2.40;0.75;;;;;;;;;;1840662;76;26267;-36
2021/12/10 06:02:43;;;;;;;1.50;0.53;;;;;;;;;;1860151;77;26274;-32
2021/12/10 06:05:11;;;;;;;1.77;0.90;;;;;;;;;;1858776;77;26293;-35
2021/12/10 06:07:39;;;;;;;0.62;0.62;;;;;;;;;;1859910;77;26242;-32
2021/12/10 06:10:07;;;;;;;1.85;0.60;;;;;;;;;;1867138;76;26305;-31
2021/12/10 06:12:35;;;;;;;1.15;0.70;;;;;;;;;;1853074;76;26254;-33
2021/12/10 06:15:04;;;;;;;1.82;0.60;;;;;;;;;;1837697;77;26344;-33
2021/12/10 06:17:32;;;;;;;2.33;0.78;;;;;;;;;;1856787;76;26318;-36
2021/12/10 06:19:59;;;;;;;1.70;0.70;;;;;;;;;;1854346;77;26934;-32
2021/12/10 06:22:27;;;;;;;4.37;0.70;;;;;;;;;;1854266;76;26283;-34
2021/12/10 06:24:54;;;;;;;2.22;0.93;;;;;;;;;;1861565;76;26768;-34
2021/12/10 06:27:21;;;;;;;3.02;0.70;;;;;;;;;;1862609;77;26326;-35
2021/12/10 06:29:49;;;;;;;1.85;0.70;;;;;;;;;;1862241;76;26278;-34
2021/12/10 06:32:17;;;;;;;1.00;0.70;;;;;;;;;;1856357;76;26789;-34
2021/12/10 06:34:44;;;;;;;1.60;0.60;;;;;;;;;;1858390;77;26258;-33
2021/12/10 06:37:11;;;;;;;0.55;0.55;;;;;;;;;;1861017;76;26384;-32
2021/12/10 06:39:39;;;;;;;0.70;0.70;;;;;;;;;;1838162;76;26256;-32
2021/12/10 06:42:06;;;;;;;3.30;0.80;;;;;;;;;;1854964;77;26323;-31
2021/12/10 06:44:33;;;;;;;1.12;0.65;;;;;;;;;;1854937;77;26340;-31
2021/12/10 06:47:05;;;;;;;0.70;0.70;;;;;;;;;;1862402;76;26812;-33
2021/12/10 06:49:30;;;;;;;1.90;0.80;;;;;;;;;;1854874;75;26799;-36
2021/12/10 06:51:57;;;;;;;0.70;0.70;;;;;;;;;;1857344;77;27869;-35
2021/12/10 06:54:24;;;;;;;0.80;0.80;;;;;;;;;;1863767;76;26253;-33
2021/12/10 06:56:52;;;;;;;2.05;1.42;;;;;;;;;;1853100;76;26288;-35
2021/12/10 06:59:21;;;;;;;2.00;0.78;;;;;;;;;;1869986;75;26246;-44
2021/12/10 07:01:48;;;;;;;10.35;1.10;;;;;;;;;;1859921;75;26269;-38
2021/12/10 07:04:16;;;;;;;2.60;0.72;;;;;;;;;;1860041;76;26281;-35
2021/12/10 07:06:45;;;;;;;2.27;0.75;;;;;;;;;;1851059;76;26802;-29
2021/12/10 07:09:14;;;;;;;2.27;1.05;;;;;;;;;;1860121;77;26300;-30
2021/12/10 07:11:41;;;;;;;1.22;0.72;;;;;;;;;;1851067;77;26301;-35
2021/12/10 07:14:08;;;;;;;3.20;1.27;;;;;;;;;;1837458;77;26261;-29
2021/12/10 07:16:37;;;;;;;1.77;0.70;;;;;;;;;;1857931;76;26375;-31
2021/12/10 07:19:06;;;;;;;0.62;0.62;;;;;;;;;;1868071;77;26328;-29
2021/12/10 07:21:34;;;;;;;0.68;0.60;;;;;;;;;;1860953;76;26666;-32
2021/12/10 07:24:04;;;;;;;1.35;0.70;;;;;;;;;;1855810;76;26198;-29
2021/12/10 07:26:31;;;;;;;2.22;0.62;;;;;;;;;;1846670;77;26344;-36
2021/12/10 07:28:59;;;;;;;1.17;0.60;;;;;;;;;;1847899;77;26368;-32
2021/12/10 07:31:27;;;;;;;0.70;0.70;;;;;;;;;;1878075;76;26264;-33
2021/12/10 07:33:54;;;;;;;0.70;0.70;;;;;;;;;;1879518;76;26257;-35
2021/12/10 07:36:23;;;;;;;0.62;0.62;;;;;;;;;;1874196;76;26274;-32
2021/12/10 07:38:50;;;;;;;1.45;0.62;;;;;;;;;;1883483;76;26795;-37
2021/12/10 07:41:18;;;;;;;1.07;0.70;;;;;;;;;;1888618;76;26233;-35
2021/12/10 07:43:45;;;;;;;0.72;0.70;;;;;;;;;;1872975;76;25945;-33
2021/12/10 07:46:13;;;;;;;0.50;0.50;;;;;;;;;;1882859;76;26253;-33
2021/12/10 07:48:41;;;;;;;3.60;0.70;;;;;;;;;;1890118;76;26296;-32
2021/12/10 07:51:10;;;;;;;2.15;0.70;;;;;;;;;;1889742;74;26261;-33
2021/12/10 07:53:39;;;;;;;0.60;0.60;;;;;;;;;;1870981;76;26272;-31
2021/12/10 07:56:07;;;;;;;0.88;0.60;;;;;;;;;;1883138;76;26285;-32
2021/12/10 07:58:37;;;;;;;0.60;0.60;;;;;;;;;;1885517;76;27304;-32
2021/12/10 08:01:05;;;;;;;0.70;0.70;;;;;;;;;;1881397;76;28254;-36
2021/12/10 08:03:32;;;;;;;1.17;0.60;;;;;;;;;;1879861;76;26277;-36
2021/12/10 08:06:00;;;;;;;1.30;0.70;;;;;;;;;;1889564;75;26261;-33
2021/12/10 08:08:28;;;;;;;1.77;0.75;;;;;;;;;;1886593;74;26273;-37
2021/12/10 08:10:56;;;;;;;0.70;0.70;;;;;;;;;;1883276;76;26257;-35
2021/12/10 08:13:23;;;;;;;0.70;0.70;;;;;;;;;;1889319;75;26326;-32
2021/12/10 08:15:51;;;;;;;0.98;0.68;;;;;;;;;;1885936;76;26250;-35
2021/12/10 08:18:19;;;;;;;0.60;0.60;;;;;;;;;;1885259;74;26714;-39
2021/12/10 08:20:47;;;;;;;1.05;0.57;;;;;;;;;;1881626;75;26241;-30
2021/12/10 08:23:15;;;;;;;1.25;0.70;;;;;;;;;;1889710;76;27428;-36
2021/12/10 08:25:43;;;;;;;0.72;0.72;;;;;;;;;;1884525;76;26194;-31
2021/12/10 08:28:10;;;;;;;0.60;0.60;;;;;;;;;;1885161;76;26730;-32
2021/12/10 08:30:39;;;;;;;0.70;0.70;;;;;;;;;;1866920;76;26415;-32
2021/12/10 08:33:12;;;;;;;0.62;0.62;;;;;;;;;;1865834;76;26324;-33
2021/12/10 08:35:35;;;;;;;0.75;0.70;;;;;;;;;;1868142;76;26445;-33
2021/12/10 08:38:02;;;;;;;0.70;0.70;;;;;;;;;;1863866;76;26202;-31
2021/12/10 08:40:31;;;;;;;0.70;0.70;;;;;;;;;;1863575;76;26563;-32
2021/12/10 08:42:58;;;;;;;0.65;0.65;;;;;;;;;;1866846;76;26304;-31
2021/12/10 08:45:26;;;;;;;0.70;0.70;;;;;;;;;;1868176;76;26270;-31
2021/12/10 08:47:54;;;;;;;0.70;0.70;;;;;;;;;;1863923;76;26261;-29
2021/12/10 08:50:23;;;;;;;1.50;0.80;;;;;;;;;;1852990;76;28628;-31
2021/12/10 08:52:52;;;;;;;1.50;0.70;;;;;;;;;;1868251;76;30416;-32
2021/12/10 08:55:19;;;;;;;0.70;0.70;;;;;;;;;;1867798;76;26371;-35
2021/12/10 08:57:46;;;;;;;0.68;0.68;;;;;;;;;;1868008;76;26277;-37
2021/12/10 09:00:14;;;;;;;0.88;0.70;;;;;;;;;;1859380;76;26274;-39
2021/12/10 09:02:42;;;;;;;0.62;0.62;;;;;;;;;;1871193;76;26647;-33
2021/12/10 09:05:10;;;;;;;0.70;0.70;;;;;;;;;;1865949;76;26285;-32
2021/12/10 09:07:38;;;;;;;0.53;0.53;;;;;;;;;;1867365;76;26722;-29
2021/12/10 09:10:08;;;;;;;0.60;0.60;;;;;;;;;;1872629;76;26304;-33
2021/12/10 09:12:37;;;;;;;1.00;0.80;;;;;;;;;;1872058;76;26335;-33
2021/12/10 09:15:06;;;;;;;1.47;0.78;;;;;;;;;;1866484;76;26250;-35
2021/12/10 09:17:34;;;;;;;0.62;0.62;;;;;;;;;;1860849;76;26300;-30
2021/12/10 09:20:03;;;;;;;0.60;0.60;;;;;;;;;;1861132;76;26254;-31
2021/12/10 09:22:30;;;;;;;0.60;0.60;;;;;;;;;;1869961;76;26352;-35
2021/12/10 09:24:58;;;;;;;0.65;0.65;;;;;;;;;;1866318;76;26250;-30
2021/12/10 09:27:26;;;;;;;0.50;0.50;;;;;;;;;;1859598;76;26245;-33
2021/12/10 09:29:55;;;;;;;0.62;0.62;;;;;;;;;;1861023;76;26818;-29
2021/12/10 09:32:24;;;;;;;0.70;0.70;;;;;;;;;;1864640;76;26973;-29
2021/12/10 09:34:52;;;;;;;1.22;0.72;;;;;;;;;;1866504;76;26979;-30
2021/12/10 09:37:21;;;;;;;0.60;0.60;;;;;;;;;;1864025;77;26335;-29
2021/12/10 09:39:50;;;;;;;1.95;0.50;;;;;;;;;;1866022;76;26278;-29
2021/12/10 09:42:20;;;;;;;0.50;0.50;;;;;;;;;;1863093;77;26281;-30
2021/12/10 09:44:48;;;;;;;0.75;0.70;;;;;;;;;;1853025;75;26301;-29
2021/12/10 09:47:15;;;;;;;0.72;0.72;;;;;;;;;;1853318;77;26260;-29
2021/12/10 09:49:45;;;;;;;0.60;0.60;;;;;;;;;;1854782;75;26318;-29
2021/12/10 09:52:16;;;;;;;0.80;0.80;;;;;;;;;;1844640;75;29555;-33
2021/12/10 09:54:45;;;;;;;0.70;0.70;;;;;;;;;;1838273;75;26280;-26
2021/12/10 09:57:14;;;;;;;2.05;0.90;;;;;;;;;;1847704;75;26264;-27
2021/12/10 09:59:42;;;;;;;0.90;0.70;;;;;;;;;;1838185;77;26210;-29
2021/12/10 10:02:11;;;;;;;1.37;0.90;;;;;;;;;;1861851;77;26253;-33
2021/12/10 10:04:43;;;;;;;1.30;0.90;;;;;;;;;;1857898;75;26431;-34
2021/12/10 10:07:13;;;;;;;0.90;0.90;;;;;;;;;;1863744;77;26210;-34
2021/12/10 10:09:46;;;;;;;1.65;0.80;;;;;;;;;;1855160;76;26768;-33
2021/12/10 10:12:15;;;;;;;1.62;0.75;;;;;;;;;;1862908;76;26294;-35
2021/12/10 10:14:42;;;;;;;1.27;0.90;;;;;;;;;;1863623;75;26199;-35
2021/12/10 10:17:11;;;;;;;0.70;0.70;;;;;;;;;;1865503;76;26258;-35
2021/12/10 10:19:39;;;;;;;0.70;0.70;;;;;;;;;;1865455;77;26266;-35
2021/12/10 10:22:08;;;;;;;1.37;0.68;;;;;;;;;;1858818;75;26696;-34
2021/12/10 10:24:36;;;;;;;0.70;0.70;;;;;;;;;;1854960;76;26299;-37
2021/12/10 10:27:05;;;;;;;0.98;0.57;;;;;;;;;;1862979;76;26262;-36
2021/12/10 10:29:33;;;;;;;0.70;0.70;;;;;;;;;;1854308;76;26217;-35
2021/12/10 10:32:08;;;;;;;0.75;0.70;;;;;;;;;;1863372;76;26316;-35
2021/12/10 10:34:31;;;;;;;0.68;0.62;;;;;;;;;;1851696;77;26247;-34
2021/12/10 10:36:59;;;;;;;0.70;0.70;;;;;;;;;;1862611;76;26916;-35
2021/12/10 10:39:32;;;;;;;0.70;0.70;;;;;;;;;;1858640;76;26324;-35
2021/12/10 10:41:57;;;;;;;0.70;0.70;;;;;;;;;;1854226;76;26250;-35
2021/12/10 10:44:25;;;;;;;0.60;0.60;;;;;;;;;;1862735;77;26195;-34
2021/12/10 10:46:53;;;;;;;0.60;0.60;;;;;;;;;;1861579;76;26374;-34
2021/12/10 10:49:31;;;;;;;0.70;0.70;;;;;;;;;;1858207;77;26270;-34
2021/12/10 10:52:00;;;;;;;0.60;0.60;;;;;;;;;;1859307;75;26375;-34
2021/12/10 10:54:29;;;;;;;1.15;0.62;;;;;;;;;;1857790;77;26323;-34
2021/12/10 10:56:56;;;;;;;0.60;0.60;;;;;;;;;;1861357;76;26378;-36
2021/12/10 10:59:26;;;;;;;0.60;0.60;;;;;;;;;;1864518;75;26737;-34
2021/12/10 11:02:03;;;;;;;0.57;0.57;;;;;;;;;;1850658;75;26293;-35
2021/12/10 11:04:32;;;;;;;0.60;0.60;;;;;;;;;;1840487;75;27387;-36
2021/12/10 11:07:07;;;;;;;0.70;0.70;;;;;;;;;;1860306;77;26252;-35
2021/12/10 11:09:35;;;;;;;0.50;0.50;;;;;;;;;;1845478;76;26265;-35
2021/12/10 11:12:07;;;;;;;0.53;0.50;;;;;;;;;;1861597;76;26199;-36
2021/12/10 11:14:39;;;;;;;2.10;0.57;;;;;;;;;;1858942;75;26394;-35
2021/12/10 11:17:14;;;;;;;0.80;0.53;;;;;;;;;;1872886;76;26282;-38
2021/12/10 11:19:43;;;;;;;1.75;0.53;;;;;;;;;;1865002;75;26370;-35
2021/12/10 11:22:12;;;;;;;0.60;0.55;;;;;;;;;;1867183;76;26211;-35
2021/12/10 11:24:45;;;;;;;0.50;0.50;;;;;;;;;;1862817;75;26235;-35
2021/12/10 11:27:20;;;;;;;0.60;0.60;;;;;;;;;;1868400;75;26755;-36
2021/12/10 11:30:04;;;;;;;0.65;0.60;;;;;;;;;;1860215;77;26730;-34
2021/12/10 11:32:48;;;;;;;0.60;0.60;;;;;;;;;;1853075;75;26280;-35
2021/12/10 11:35:17;;;;;;;0.42;0.42;;;;;;;;;;1849833;77;26253;-35
2021/12/10 11:38:01;;;;;;;0.60;0.60;;;;;;;;;;1858605;77;26374;-34
2021/12/10 11:40:42;;;;;;;0.60;0.60;;;;;;;;;;1857896;75;26245;-34
2021/12/10 11:46:27;;;;;;;0.70;0.70;;;;;;;;;;1809774;75;26899;-36
2021/12/10 11:48:35;;;;;;;0.50;0.50;;;;;;;;;;1844175;77;26273;-35
2021/12/10 11:51:04;;;;;;;1.27;0.50;;;;;;;;;;1843982;76;26328;-34
2021/12/10 11:53:39;;;;;;;0.65;0.50;;;;;;;;;;1837773;77;26294;-37
2021/12/10 11:56:14;;;;;;;0.47;0.47;;;;;;;;;;1852612;76;26791;-34
2021/12/10 11:58:41;;;;;;;0.65;0.50;;;;;;;;;;1846986;77;26213;-35
2021/12/10 12:01:16;;;;;;;0.42;0.42;;;;;;;;;;1858787;77;26350;-35
2021/12/10 12:03:45;;;;;;;0.62;0.62;;;;;;;;;;1864333;77;26312;-34
2021/12/10 12:06:13;;;;;;;0.50;0.50;;;;;;;;;;1860150;77;26390;-35
2021/12/10 12:08:41;;;;;;;0.60;0.60;;;;;;;;;;1866839;76;26238;-34
2021/12/10 12:11:09;;;;;;;0.72;0.65;;;;;;;;;;1864808;77;26187;-34
2021/12/10 12:13:40;;;;;;;2.98;0.60;;;;;;;;;;1866371;77;26278;-35
2021/12/10 12:16:07;;;;;;;0.65;0.45;;;;;;;;;;1857340;77;26203;-34
2021/12/10 12:18:36;;;;;;;1.30;0.68;;;;;;;;;;1859698;76;26284;-35
2021/12/10 12:26:56;;;;;;;0.50;0.50;;;;;;;;;;1851364;75;26303;-36
2021/12/10 12:29:23;;;;;;;0.45;0.45;;;;;;;;;;1847108;75;26792;-34
2021/12/10 12:31:52;;;;;;;0.40;0.40;;;;;;;;;;1884469;74;26306;-34
2021/12/10 12:34:21;;;;;;;0.60;0.50;;;;;;;;;;1879665;76;26538;-36
2021/12/10 12:36:53;;;;;;;0.50;0.50;;;;;;;;;;1885735;76;26281;-34
2021/12/10 12:39:27;;;;;;;0.60;0.60;;;;;;;;;;1882976;76;26278;-34
2021/12/10 12:41:54;;;;;;;0.68;0.50;;;;;;;;;;1847377;76;26736;-35
2021/12/10 12:44:23;;;;;;;0.50;0.50;;;;;;;;;;1876102;75;26326;-34
2021/12/10 12:46:55;;;;;;;2.87;0.62;;;;;;;;;;1886526;76;26284;-34
2021/12/10 12:49:22;;;;;;;0.50;0.50;;;;;;;;;;1869764;76;26553;-34
2021/12/10 12:52:03;;;;;;;0.60;0.60;;;;;;;;;;1879388;76;26236;-34
2021/12/10 12:54:31;;;;;;;0.70;0.70;;;;;;;;;;1878892;76;26254;-34
2021/12/10 12:56:58;;;;;;;0.60;0.60;;;;;;;;;;1892126;76;26297;-34
2021/12/10 12:59:26;;;;;;;0.90;0.70;;;;;;;;;;1861353;76;26817;-34
2021/12/10 13:01:54;;;;;;;1.85;0.70;;;;;;;;;;1891107;76;26276;-35
2021/12/10 13:04:33;;;;;;;0.70;0.70;;;;;;;;;;1890956;76;26733;-34
2021/12/10 13:07:02;;;;;;;0.50;0.50;;;;;;;;;;1871304;76;26688;-35
2021/12/10 13:09:38;;;;;;;0.72;0.72;;;;;;;;;;1879495;76;26284;-37
2021/12/10 13:14:36;;;;;;;0.62;0.62;;;;;;;;;;1872540;74;26295;-36
2021/12/10 13:17:02;;;;;;;0.70;0.70;;;;;;;;;;1864610;76;26848;-34
2021/12/10 13:19:31;;;;;;;1.40;0.70;;;;;;;;;;1880180;76;26819;-34
2021/12/10 13:21:59;;;;;;;0.60;0.60;;;;;;;;;;1883612;76;26287;-34
2021/12/10 13:24:28;;;;;;;0.60;0.60;;;;;;;;;;1887859;76;26319;-34
2021/12/10 13:26:57;;;;;;;0.60;0.60;;;;;;;;;;1881015;74;26300;-36
2021/12/10 13:29:25;;;;;;;0.50;0.50;;;;;;;;;;1877566;76;26313;-34
2021/12/10 13:31:52;;;;;;;1.80;0.55;;;;;;;;;;1878394;76;26285;-34
2021/12/10 13:34:20;;;;;;;0.80;0.60;;;;;;;;;;1854416;75;26257;-34
2021/12/10 13:36:48;;;;;;;0.53;0.53;;;;;;;;;;1848783;77;26331;-33
2021/12/10 13:39:15;;;;;;;1.20;0.70;;;;;;;;;;1861693;77;26253;-36
2021/12/10 13:41:43;;;;;;;0.60;0.60;;;;;;;;;;1861145;76;26686;-34
2021/12/10 13:44:20;;;;;;;0.60;0.60;;;;;;;;;;1853814;76;26288;-35
2021/12/10 13:46:46;;;;;;;0.50;0.50;;;;;;;;;;1858809;77;26248;-36
2021/12/10 13:49:14;;;;;;;0.55;0.55;;;;;;;;;;1862216;76;26934;-34
2021/12/10 13:51:46;;;;;;;1.00;0.70;;;;;;;;;;1849042;76;26296;-36
2021/12/10 13:54:21;;;;;;;0.68;0.65;;;;;;;;;;1862222;77;26327;-34
2021/12/10 13:56:48;;;;;;;0.60;0.55;;;;;;;;;;1862360;76;26370;-35
2021/12/10 13:59:17;;;;;;;0.50;0.50;;;;;;;;;;1846843;77;26339;-35
2021/12/10 14:01:46;;;;;;;0.53;0.53;;;;;;;;;;1859149;76;26298;-35
2021/12/10 14:04:17;;;;;;;0.55;0.55;;;;;;;;;;1849362;77;26274;-34
2021/12/10 14:06:52;;;;;;;0.80;0.80;;;;;;;;;;1847132;76;26252;-34
2021/12/10 14:09:26;;;;;;;0.60;0.60;;;;;;;;;;1867483;77;26320;-34
2021/12/10 14:12:08;;;;;;;0.60;0.60;;;;;;;;;;1856104;75;26755;-34
2021/12/10 14:14:37;;;;;;;0.68;0.62;;;;;;;;;;1855645;76;26270;-35
2021/12/10 14:17:05;;;;;;;0.50;0.50;;;;;;;;;;1862362;77;26299;-37
2021/12/10 14:19:34;;;;;;;0.42;0.42;;;;;;;;;;1858073;75;26208;-33
2021/12/10 14:22:02;;;;;;;0.53;0.40;;;;;;;;;;1848478;75;26711;-35
2021/12/10 14:24:35;;;;;;;0.60;0.60;;;;;;;;;;1855853;76;26342;-34
2021/12/10 14:27:03;;;;;;;0.70;0.70;;;;;;;;;;1859634;77;26366;-34
2021/12/10 14:29:31;;;;;;;0.70;0.70;;;;;;;;;;1843641;77;26266;-34
2021/12/10 14:31:58;;;;;;;0.60;0.60;;;;;;;;;;1858901;76;26281;-34
2021/12/10 14:34:26;;;;;;;0.68;0.68;;;;;;;;;;1858347;76;26304;-34
2021/12/10 14:37:00;;;;;;;0.50;0.50;;;;;;;;;;1860788;75;26210;-34
2021/12/10 14:39:28;;;;;;;0.50;0.50;;;;;;;;;;1861341;77;26705;-37
2021/12/10 14:41:56;;;;;;;0.65;0.65;;;;;;;;;;1858451;75;26305;-34
2021/12/10 14:44:27;;;;;;;0.70;0.70;;;;;;;;;;1862179;76;26720;-33
2021/12/10 14:46:57;;;;;;;2.20;0.70;;;;;;;;;;1865134;77;26812;-36
2021/12/10 14:49:35;;;;;;;1.45;0.88;;;;;;;;;;1865861;76;26348;-31
2021/12/10 14:52:22;;;;;;;2.42;0.90;;;;;;;;;;1858004;77;26719;-32
2021/12/10 14:55:07;;;;;;;3.72;1.00;;;;;;;;;;1862381;77;26222;-29
2021/12/10 14:57:48;;;;;;;3.60;1.30;;;;;;;;;;1853120;77;26330;-37
2021/12/10 15:00:51;;;;;;;7.05;1.50;;;;;;;;;;1862590;77;26784;-34
2021/12/10 15:03:00;;;;;;;4.08;1.45;;;;;;;;;;1858607;75;26234;-32
2021/12/10 15:05:31;;;;;;;3.45;1.60;;;;;;;;;;1865120;76;26289;-31
2021/12/10 15:07:59;;;;;;;3.65;1.35;;;;;;;;;;1845321;76;26262;-30
2021/12/10 15:10:41;;;;;;;3.55;1.60;;;;;;;;;;1861724;77;26690;-31
2021/12/10 15:13:13;;;;;;;3.50;1.50;;;;;;;;;;1859024;76;26270;-32
2021/12/10 15:15:48;;;;;;;2.37;1.50;;;;;;;;;;1862395;76;26333;-30